GLO1548 SBSP-SBSG
Flight info
| Callsign | GLO1548 |
|---|---|
| Flight time | 2h 57m |
| Altitude | 37000 |
| Route | NUXEL UZ23 BISUD DCT BHZ DCT DOSVU UZ72 TOGUN |
| Aircraft | B738/M-SDFGIKLORWXY/LB1 |
Departure
| Time | 2026-05-08 23:23 |
|---|---|
| Airport | Congonhas–Deputado Freitas Nobre Airport (SBSP) |
Arrival
| Time | 2026-05-09 02:20 |
|---|---|
| Airport | Rio Grande do Norte/São Gonçalo do Amarante–Governador Aluízio Alves International Airport (SBSG) |
| Time | Latitude | Longitude | Altitude | Speed | Heading |
|---|---|---|---|---|---|
| 2026-05-08 23:10 | -23.62718 | -46.65822 | 2600 ft | 0 kts | 237° |
| 2026-05-08 23:15 | -23.62708 | -46.65806 | 2600 ft | 3 kts | 231° |
| 2026-05-08 23:15 | -23.62695 | -46.65794 | 2600 ft | 3 kts | 176° |
| 2026-05-08 23:15 | -23.62677 | -46.65798 | 2600 ft | 3 kts | 159° |
| 2026-05-08 23:16 | -23.62657 | -46.65808 | 2600 ft | 3 kts | 147° |
| 2026-05-08 23:16 | -23.62640 | -46.65821 | 2600 ft | 2 kts | 147° |
| 2026-05-08 23:16 | -23.62639 | -46.65822 | 2600 ft | 0 kts | 147° |
| 2026-05-08 23:18 | -23.62648 | -46.65816 | 2600 ft | 4 kts | 147° |
| 2026-05-08 23:18 | -23.62679 | -46.65787 | 2600 ft | 8 kts | 127° |
| 2026-05-08 23:18 | -23.62722 | -46.65725 | 2601 ft | 12 kts | 127° |
| 2026-05-08 23:19 | -23.62794 | -46.65666 | 2602 ft | 14 kts | 146° |
| 2026-05-08 23:19 | -23.62872 | -46.65610 | 2602 ft | 13 kts | 147° |
| 2026-05-08 23:19 | -23.62948 | -46.65558 | 2602 ft | 13 kts | 147° |
| 2026-05-08 23:19 | -23.63028 | -46.65520 | 2602 ft | 13 kts | 172° |
| 2026-05-08 23:20 | -23.63106 | -46.65485 | 2601 ft | 12 kts | 147° |
| 2026-05-08 23:20 | -23.63177 | -46.65435 | 2601 ft | 12 kts | 147° |
| 2026-05-08 23:20 | -23.63247 | -46.65386 | 2601 ft | 12 kts | 147° |
| 2026-05-08 23:20 | -23.63315 | -46.65339 | 2601 ft | 11 kts | 147° |
| 2026-05-08 23:21 | -23.63381 | -46.65293 | 2601 ft | 11 kts | 147° |
| 2026-05-08 23:21 | -23.63445 | -46.65248 | 2600 ft | 11 kts | 147° |
| 2026-05-08 23:21 | -23.63500 | -46.65195 | 2599 ft | 11 kts | 110° |
| 2026-05-08 23:21 | -23.63466 | -46.65128 | 2593 ft | 10 kts | 48° |
| 2026-05-08 23:22 | -23.63421 | -46.65123 | 2600 ft | 0 kts | 329° |
| 2026-05-08 23:22 | -23.63406 | -46.65132 | 2602 ft | 18 kts | 329° |
| 2026-05-08 23:22 | -23.63073 | -46.65359 | 2609 ft | 94 kts | 327° |
| 2026-05-08 23:22 | -23.62318 | -46.65885 | 2601 ft | 161 kts | 329° |
| 2026-05-08 23:23 | -23.61268 | -46.66595 | 3044 ft | 183 kts | 329° |
| 2026-05-08 23:23 | -23.60146 | -46.67269 | 3914 ft | 187 kts | 340° |
| 2026-05-08 23:23 | -23.58861 | -46.67303 | 4505 ft | 197 kts | 22° |
| 2026-05-08 23:23 | -23.57802 | -46.66302 | 4750 ft | 218 kts | 60° |
| 2026-05-08 23:24 | -23.57462 | -46.64642 | 5010 ft | 237 kts | 98° |
| 2026-05-08 23:24 | -23.58122 | -46.63005 | 5416 ft | 241 kts | 132° |
| 2026-05-08 23:24 | -23.59286 | -46.61614 | 5563 ft | 253 kts | 134° |
| 2026-05-08 23:24 | -23.60328 | -46.60045 | 6031 ft | 265 kts | 109° |
| 2026-05-08 23:25 | -23.60830 | -46.58016 | 6396 ft | 285 kts | 101° |
| 2026-05-08 23:25 | -23.61369 | -46.55905 | 7079 ft | 294 kts | 113° |
| 2026-05-08 23:25 | -23.62625 | -46.54120 | 7807 ft | 301 kts | 136° |
| 2026-05-08 23:25 | -23.64150 | -46.52575 | 8586 ft | 304 kts | 136° |
| 2026-05-08 23:26 | -23.65702 | -46.50978 | 9308 ft | 309 kts | 135° |
| 2026-05-08 23:26 | -23.67262 | -46.49346 | 10075 ft | 311 kts | 135° |
| 2026-05-08 23:26 | -23.68850 | -46.47672 | 10534 ft | 328 kts | 135° |
| 2026-05-08 23:26 | -23.70385 | -46.45736 | 10669 ft | 349 kts | 118° |
| 2026-05-08 23:27 | -23.71117 | -46.43194 | 11099 ft | 355 kts | 92° |
| 2026-05-08 23:27 | -23.70966 | -46.40506 | 11744 ft | 356 kts | 78° |
| 2026-05-08 23:27 | -23.70570 | -46.37834 | 12453 ft | 359 kts | 77° |
| 2026-05-08 23:27 | -23.70143 | -46.35141 | 13145 ft | 362 kts | 77° |
| 2026-05-08 23:28 | -23.69719 | -46.32417 | 13793 ft | 366 kts | 77° |
| 2026-05-08 23:28 | -23.69305 | -46.29650 | 14415 ft | 371 kts | 77° |
| 2026-05-08 23:28 | -23.68898 | -46.26863 | 15051 ft | 374 kts | 77° |
| 2026-05-08 23:28 | -23.68491 | -46.24043 | 15692 ft | 377 kts | 77° |
| 2026-05-08 23:29 | -23.68083 | -46.21195 | 16275 ft | 381 kts | 77° |
| 2026-05-08 23:29 | -23.67671 | -46.18325 | 16836 ft | 385 kts | 77° |
| 2026-05-08 23:29 | -23.67145 | -46.15457 | 17383 ft | 385 kts | 66° |
| 2026-05-08 23:29 | -23.65824 | -46.12974 | 17916 ft | 377 kts | 44° |
| 2026-05-08 23:30 | -23.63881 | -46.11106 | 18479 ft | 371 kts | 27° |
| 2026-05-08 23:30 | -23.61604 | -46.09786 | 18972 ft | 373 kts | 22° |
| 2026-05-08 23:30 | -23.59254 | -46.08544 | 19453 ft | 377 kts | 22° |
| 2026-05-08 23:30 | -23.56911 | -46.07285 | 19938 ft | 381 kts | 22° |
| 2026-05-08 23:31 | -23.54532 | -46.05980 | 20411 ft | 385 kts | 22° |
| 2026-05-08 23:31 | -23.52135 | -46.04649 | 20871 ft | 388 kts | 22° |
| 2026-05-08 23:31 | -23.49712 | -46.03301 | 21322 ft | 392 kts | 22° |
| 2026-05-08 23:31 | -23.47270 | -46.01942 | 21748 ft | 396 kts | 22° |
| 2026-05-08 23:32 | -23.44800 | -46.00572 | 22030 ft | 397 kts | 21° |
| 2026-05-08 23:32 | -23.42236 | -45.99596 | 22040 ft | 387 kts | 4° |
| 2026-05-08 23:32 | -23.39552 | -45.99396 | 22053 ft | 388 kts | 358° |
| 2026-05-08 23:32 | -23.36853 | -45.99345 | 22042 ft | 387 kts | 357° |
| 2026-05-08 23:33 | -23.34159 | -45.99297 | 22040 ft | 387 kts | 358° |
| 2026-05-08 23:33 | -23.31462 | -45.99226 | 22049 ft | 388 kts | 358° |
| 2026-05-08 23:33 | -23.28755 | -45.99137 | 22047 ft | 389 kts | 358° |
| 2026-05-08 23:33 | -23.26082 | -45.99043 | 22047 ft | 390 kts | 358° |
| 2026-05-08 23:34 | -23.23356 | -45.98947 | 22221 ft | 396 kts | 358° |
| 2026-05-08 23:34 | -23.20592 | -45.98850 | 22720 ft | 396 kts | 358° |
| 2026-05-08 23:34 | -23.17835 | -45.98753 | 23239 ft | 396 kts | 358° |
| 2026-05-08 23:34 | -23.15073 | -45.98656 | 23643 ft | 399 kts | 358° |
| 2026-05-08 23:35 | -23.12283 | -45.98558 | 24009 ft | 402 kts | 358° |
| 2026-05-08 23:35 | -23.09477 | -45.98460 | 24345 ft | 406 kts | 358° |
| 2026-05-08 23:35 | -23.06644 | -45.98362 | 24693 ft | 409 kts | 358° |
| 2026-05-08 23:35 | -23.03784 | -45.98262 | 25065 ft | 412 kts | 358° |
| 2026-05-08 23:36 | -23.00908 | -45.98163 | 25441 ft | 414 kts | 358° |
| 2026-05-08 23:36 | -22.98013 | -45.98061 | 25753 ft | 418 kts | 358° |
| 2026-05-08 23:36 | -22.95088 | -45.97957 | 26071 ft | 421 kts | 358° |
| 2026-05-08 23:36 | -22.92198 | -45.97856 | 26496 ft | 422 kts | 358° |
| 2026-05-08 23:37 | -22.89258 | -45.97749 | 26868 ft | 424 kts | 359° |
| 2026-05-08 23:37 | -22.86306 | -45.97348 | 27079 ft | 433 kts | 8° |
| 2026-05-08 23:37 | -22.83351 | -45.96605 | 27355 ft | 438 kts | 10° |
| 2026-05-08 23:37 | -22.80391 | -45.95776 | 27691 ft | 440 kts | 11° |
| 2026-05-08 23:38 | -22.77423 | -45.94935 | 28001 ft | 442 kts | 10° |
| 2026-05-08 23:38 | -22.74437 | -45.94106 | 28301 ft | 444 kts | 10° |
| 2026-05-08 23:38 | -22.71428 | -45.93290 | 28593 ft | 446 kts | 9° |
| 2026-05-08 23:38 | -22.68399 | -45.92494 | 28870 ft | 448 kts | 9° |
| 2026-05-08 23:39 | -22.65395 | -45.91719 | 29116 ft | 451 kts | 9° |
| 2026-05-08 23:39 | -22.62334 | -45.90935 | 29356 ft | 453 kts | 9° |
| 2026-05-08 23:39 | -22.59273 | -45.90150 | 29629 ft | 455 kts | 9° |
| 2026-05-08 23:39 | -22.56171 | -45.89353 | 29902 ft | 457 kts | 9° |
| 2026-05-08 23:40 | -22.53065 | -45.88555 | 30124 ft | 459 kts | 9° |
| 2026-05-08 23:40 | -22.49946 | -45.87763 | 30345 ft | 461 kts | 9° |
| 2026-05-08 23:40 | -22.46821 | -45.86961 | 30579 ft | 463 kts | 9° |
| 2026-05-08 23:40 | -22.43682 | -45.86151 | 30825 ft | 465 kts | 9° |
| 2026-05-08 23:41 | -22.40529 | -45.85338 | 31077 ft | 466 kts | 9° |
| 2026-05-08 23:41 | -22.37374 | -45.84526 | 31355 ft | 466 kts | 9° |
| 2026-05-08 23:41 | -22.34228 | -45.83718 | 31682 ft | 465 kts | 9° |
| 2026-05-08 23:41 | -22.31081 | -45.82912 | 32012 ft | 464 kts | 9° |
| 2026-05-08 23:42 | -22.28001 | -45.81833 | 32263 ft | 471 kts | 24° |
| 2026-05-08 23:42 | -22.25308 | -45.79841 | 32479 ft | 479 kts | 36° |
| 2026-05-08 23:42 | -22.22746 | -45.77555 | 32813 ft | 477 kts | 36° |
| 2026-05-08 23:42 | -22.20185 | -45.75276 | 33081 ft | 477 kts | 36° |
| 2026-05-08 23:43 | -22.17604 | -45.72998 | 33333 ft | 478 kts | 36° |
| 2026-05-08 23:43 | -22.15025 | -45.70740 | 33620 ft | 477 kts | 36° |
| 2026-05-08 23:43 | -22.12439 | -45.68494 | 33910 ft | 476 kts | 35° |
| 2026-05-08 23:43 | -22.09850 | -45.66257 | 34185 ft | 476 kts | 35° |
| 2026-05-08 23:44 | -22.07264 | -45.64029 | 34412 ft | 476 kts | 35° |
| 2026-05-08 23:44 | -22.04675 | -45.61801 | 34629 ft | 476 kts | 35° |
| 2026-05-08 23:44 | -22.02085 | -45.59573 | 34875 ft | 476 kts | 35° |
| 2026-05-08 23:44 | -21.99495 | -45.57344 | 35123 ft | 476 kts | 35° |
| 2026-05-08 23:45 | -21.96910 | -45.55121 | 35360 ft | 476 kts | 35° |
| 2026-05-08 23:45 | -21.94314 | -45.52890 | 35544 ft | 476 kts | 36° |
| 2026-05-08 23:45 | -21.91726 | -45.50664 | 35755 ft | 476 kts | 36° |
| 2026-05-08 23:45 | -21.89174 | -45.48470 | 36006 ft | 475 kts | 36° |
| 2026-05-08 23:46 | -21.87428 | -45.46970 | 36137 ft | 476 kts | 36° |
| 2026-05-08 23:46 | -21.84841 | -45.44749 | 36331 ft | 476 kts | 36° |
| 2026-05-08 23:46 | -21.82255 | -45.42529 | 36527 ft | 476 kts | 36° |
| 2026-05-08 23:46 | -21.79662 | -45.40304 | 36718 ft | 476 kts | 36° |
| 2026-05-08 23:47 | -21.77108 | -45.38114 | 36983 ft | 474 kts | 36° |
| 2026-05-08 23:47 | -21.74522 | -45.35897 | 37015 ft | 477 kts | 36° |
| 2026-05-08 23:47 | -21.69321 | -45.31444 | 37031 ft | 480 kts | 36° |
| 2026-05-08 23:48 | -21.64115 | -45.26988 | 37025 ft | 477 kts | 36° |
| 2026-05-08 23:48 | -21.58920 | -45.22547 | 37036 ft | 474 kts | 36° |
| 2026-05-08 23:49 | -21.53775 | -45.18153 | 37035 ft | 471 kts | 36° |
| 2026-05-08 23:49 | -21.48644 | -45.13775 | 37032 ft | 470 kts | 36° |
| 2026-05-08 23:50 | -21.43519 | -45.09408 | 37051 ft | 470 kts | 36° |
| 2026-05-08 23:50 | -21.38421 | -45.05065 | 37059 ft | 471 kts | 36° |
| 2026-05-08 23:51 | -21.33261 | -45.00675 | 37059 ft | 473 kts | 36° |
| 2026-05-08 23:51 | -21.28087 | -44.96275 | 37062 ft | 475 kts | 36° |
| 2026-05-08 23:52 | -21.22900 | -44.91866 | 37070 ft | 477 kts | 36° |
| 2026-05-08 23:52 | -21.17686 | -44.87441 | 37067 ft | 478 kts | 36° |
| 2026-05-08 23:53 | -21.12474 | -44.83001 | 37077 ft | 479 kts | 36° |
| 2026-05-08 23:53 | -21.07248 | -44.78545 | 37070 ft | 480 kts | 36° |
| 2026-05-08 23:54 | -21.01994 | -44.74204 | 37081 ft | 479 kts | 33° |
| 2026-05-08 23:55 | -20.93810 | -44.68069 | 37083 ft | 478 kts | 33° |
| 2026-05-08 23:55 | -20.88378 | -44.63955 | 37083 ft | 477 kts | 33° |
| 2026-05-08 23:56 | -20.82977 | -44.59829 | 37104 ft | 477 kts | 33° |
| 2026-05-08 23:56 | -20.77580 | -44.55715 | 37101 ft | 476 kts | 33° |
| 2026-05-08 23:57 | -20.72184 | -44.51605 | 37104 ft | 476 kts | 34° |
| 2026-05-08 23:57 | -20.66830 | -44.47527 | 37106 ft | 475 kts | 33° |
| 2026-05-08 23:58 | -20.61446 | -44.43429 | 37120 ft | 475 kts | 34° |
| 2026-05-08 23:58 | -20.56061 | -44.39335 | 37122 ft | 475 kts | 33° |
| 2026-05-08 23:59 | -20.50680 | -44.35247 | 37132 ft | 475 kts | 34° |
| 2026-05-08 23:59 | -20.45286 | -44.31154 | 37129 ft | 475 kts | 33° |
| 2026-05-09 00:00 | -20.39579 | -44.27772 | 37149 ft | 472 kts | 22° |
| 2026-05-09 00:00 | -20.33575 | -44.24908 | 37141 ft | 472 kts | 22° |
| 2026-05-09 00:01 | -20.27574 | -44.22027 | 37147 ft | 473 kts | 22° |
| 2026-05-09 00:01 | -20.21596 | -44.19098 | 37152 ft | 474 kts | 23° |
| 2026-05-09 00:02 | -20.15591 | -44.16135 | 37154 ft | 475 kts | 23° |
| 2026-05-09 00:02 | -20.09584 | -44.13172 | 37158 ft | 476 kts | 23° |
| 2026-05-09 00:03 | -20.03562 | -44.10208 | 37162 ft | 477 kts | 23° |
| 2026-05-09 00:03 | -19.97557 | -44.07256 | 37165 ft | 479 kts | 23° |
| 2026-05-09 00:04 | -19.91506 | -44.04282 | 37157 ft | 480 kts | 23° |
| 2026-05-09 00:04 | -19.85477 | -44.01322 | 37158 ft | 480 kts | 23° |
| 2026-05-09 00:05 | -19.79352 | -43.98311 | 37157 ft | 481 kts | 23° |
| 2026-05-09 00:05 | -19.73279 | -43.95311 | 37152 ft | 481 kts | 23° |
| 2026-05-09 00:06 | -19.67254 | -43.92336 | 37141 ft | 480 kts | 23° |
| 2026-05-09 00:06 | -19.61190 | -43.89345 | 37134 ft | 480 kts | 23° |
| 2026-05-09 00:07 | -19.55145 | -43.86366 | 37133 ft | 478 kts | 23° |
| 2026-05-09 00:07 | -19.49104 | -43.83390 | 37126 ft | 478 kts | 23° |
| 2026-05-09 00:08 | -19.43071 | -43.80425 | 37136 ft | 477 kts | 23° |
| 2026-05-09 00:08 | -19.37057 | -43.77471 | 37122 ft | 476 kts | 23° |
| 2026-05-09 00:09 | -19.31092 | -43.74542 | 37133 ft | 475 kts | 23° |
| 2026-05-09 00:09 | -19.25090 | -43.71598 | 37131 ft | 475 kts | 23° |
| 2026-05-09 00:10 | -19.19081 | -43.68653 | 37119 ft | 476 kts | 23° |
| 2026-05-09 00:10 | -19.13071 | -43.65708 | 37120 ft | 476 kts | 23° |
| 2026-05-09 00:11 | -19.07064 | -43.62769 | 37123 ft | 475 kts | 23° |
| 2026-05-09 00:11 | -19.01050 | -43.59828 | 37121 ft | 476 kts | 23° |
| 2026-05-09 00:12 | -18.95033 | -43.56887 | 37111 ft | 477 kts | 23° |
| 2026-05-09 00:12 | -18.89043 | -43.53962 | 37108 ft | 477 kts | 23° |
| 2026-05-09 00:13 | -18.83008 | -43.51018 | 37114 ft | 478 kts | 23° |
| 2026-05-09 00:13 | -18.76959 | -43.48070 | 37111 ft | 479 kts | 23° |
| 2026-05-09 00:14 | -18.70907 | -43.45122 | 37106 ft | 478 kts | 23° |
| 2026-05-09 00:14 | -18.64854 | -43.42176 | 37111 ft | 479 kts | 23° |
| 2026-05-09 00:15 | -18.58803 | -43.39233 | 37099 ft | 479 kts | 23° |
| 2026-05-09 00:15 | -18.52772 | -43.36302 | 37099 ft | 479 kts | 23° |
| 2026-05-09 00:16 | -18.46712 | -43.33362 | 37101 ft | 479 kts | 23° |
| 2026-05-09 00:16 | -18.40663 | -43.30427 | 37098 ft | 479 kts | 23° |
| 2026-05-09 00:17 | -18.34615 | -43.27494 | 37105 ft | 478 kts | 23° |
| 2026-05-09 00:17 | -18.28550 | -43.24556 | 37102 ft | 479 kts | 23° |
| 2026-05-09 00:18 | -18.22544 | -43.21648 | 37106 ft | 479 kts | 23° |
| 2026-05-09 00:18 | -18.16489 | -43.18719 | 37099 ft | 479 kts | 23° |
| 2026-05-09 00:19 | -18.10455 | -43.15803 | 37105 ft | 479 kts | 23° |
| 2026-05-09 00:19 | -18.04369 | -43.12865 | 37094 ft | 479 kts | 23° |
| 2026-05-09 00:20 | -17.98305 | -43.09938 | 37108 ft | 479 kts | 23° |
| 2026-05-09 00:20 | -17.92246 | -43.07016 | 37102 ft | 479 kts | 23° |
| 2026-05-09 00:21 | -17.86189 | -43.04097 | 37107 ft | 478 kts | 23° |
| 2026-05-09 00:21 | -17.80182 | -43.01204 | 37130 ft | 478 kts | 23° |
| 2026-05-09 00:22 | -17.74135 | -42.98295 | 37130 ft | 478 kts | 23° |
| 2026-05-09 00:22 | -17.68082 | -42.95388 | 37131 ft | 477 kts | 23° |
| 2026-05-09 00:23 | -17.62042 | -42.92486 | 37130 ft | 477 kts | 23° |
| 2026-05-09 00:23 | -17.56038 | -42.89601 | 37128 ft | 477 kts | 23° |
| 2026-05-09 00:24 | -17.50001 | -42.86704 | 37130 ft | 477 kts | 23° |
| 2026-05-09 00:24 | -17.43959 | -42.83809 | 37132 ft | 477 kts | 23° |
| 2026-05-09 00:25 | -17.37914 | -42.80915 | 37129 ft | 477 kts | 23° |
| 2026-05-09 00:25 | -17.31874 | -42.78024 | 37132 ft | 477 kts | 23° |
| 2026-05-09 00:26 | -17.25832 | -42.75134 | 37126 ft | 477 kts | 23° |
| 2026-05-09 00:26 | -17.19794 | -42.72248 | 37125 ft | 478 kts | 23° |
| 2026-05-09 00:27 | -17.13781 | -42.69377 | 37134 ft | 478 kts | 23° |
| 2026-05-09 00:27 | -17.07719 | -42.66484 | 37124 ft | 478 kts | 23° |
| 2026-05-09 00:28 | -17.01662 | -42.63595 | 37128 ft | 478 kts | 23° |
| 2026-05-09 00:28 | -16.95598 | -42.60703 | 37130 ft | 479 kts | 24° |
| 2026-05-09 00:29 | -16.89535 | -42.57815 | 37128 ft | 479 kts | 24° |
| 2026-05-09 00:29 | -16.83478 | -42.54933 | 37129 ft | 479 kts | 24° |
| 2026-05-09 00:30 | -16.77404 | -42.52045 | 37116 ft | 479 kts | 24° |
| 2026-05-09 00:30 | -16.71336 | -42.49162 | 37123 ft | 479 kts | 24° |
| 2026-05-09 00:31 | -16.65280 | -42.46284 | 37124 ft | 479 kts | 24° |
| 2026-05-09 00:31 | -16.59256 | -42.43423 | 37117 ft | 478 kts | 24° |
| 2026-05-09 00:32 | -16.53121 | -42.40744 | 37125 ft | 477 kts | 19° |
| 2026-05-09 00:32 | -16.46874 | -42.38391 | 37118 ft | 478 kts | 18° |
| 2026-05-09 00:33 | -16.40619 | -42.36043 | 37124 ft | 478 kts | 19° |
| 2026-05-09 00:33 | -16.35433 | -42.34058 | 37121 ft | 478 kts | 19° |
| 2026-05-09 00:34 | -16.29196 | -42.31655 | 37121 ft | 478 kts | 19° |
| 2026-05-09 00:34 | -16.22961 | -42.29252 | 37124 ft | 478 kts | 19° |
| 2026-05-09 00:35 | -16.16715 | -42.26843 | 37120 ft | 478 kts | 21° |
| 2026-05-09 00:35 | -16.10830 | -42.23613 | 37116 ft | 478 kts | 31° |
| 2026-05-09 00:36 | -16.05159 | -42.19984 | 37116 ft | 478 kts | 32° |
| 2026-05-09 00:36 | -15.99519 | -42.16389 | 37104 ft | 478 kts | 31° |
| 2026-05-09 00:37 | -15.93822 | -42.12820 | 37112 ft | 478 kts | 31° |
| 2026-05-09 00:37 | -15.88110 | -42.09270 | 37099 ft | 478 kts | 31° |
| 2026-05-09 00:38 | -15.82396 | -42.05726 | 37101 ft | 479 kts | 31° |
| 2026-05-09 00:38 | -15.76671 | -42.02175 | 37101 ft | 479 kts | 31° |
| 2026-05-09 00:39 | -15.70954 | -41.98629 | 37096 ft | 479 kts | 31° |
| 2026-05-09 00:39 | -15.65244 | -41.95092 | 37107 ft | 478 kts | 31° |
| 2026-05-09 00:40 | -15.59522 | -41.91546 | 37105 ft | 478 kts | 31° |
| 2026-05-09 00:40 | -15.53840 | -41.88028 | 37086 ft | 479 kts | 31° |
| 2026-05-09 00:41 | -15.45224 | -41.82701 | 37094 ft | 478 kts | 31° |
| 2026-05-09 00:41 | -15.39535 | -41.79185 | 37093 ft | 478 kts | 31° |
| 2026-05-09 00:42 | -15.33822 | -41.75657 | 37084 ft | 478 kts | 31° |
| 2026-05-09 00:42 | -15.28110 | -41.72132 | 37099 ft | 478 kts | 31° |
| 2026-05-09 00:43 | -15.22386 | -41.68600 | 37095 ft | 478 kts | 30° |
| 2026-05-09 00:43 | -15.16672 | -41.65079 | 37082 ft | 478 kts | 30° |
| 2026-05-09 00:44 | -15.10953 | -41.61556 | 37097 ft | 478 kts | 30° |
| 2026-05-09 00:44 | -15.05233 | -41.58033 | 37093 ft | 478 kts | 30° |
| 2026-05-09 00:45 | -14.99509 | -41.54512 | 37081 ft | 479 kts | 30° |
| 2026-05-09 00:45 | -14.93785 | -41.50989 | 37085 ft | 479 kts | 30° |
| 2026-05-09 00:46 | -14.88091 | -41.47491 | 37083 ft | 479 kts | 30° |
| 2026-05-09 00:46 | -14.82351 | -41.43969 | 37084 ft | 479 kts | 30° |
| 2026-05-09 00:47 | -14.76614 | -41.40449 | 37091 ft | 479 kts | 30° |
| 2026-05-09 00:47 | -14.70900 | -41.36943 | 37091 ft | 478 kts | 30° |
| 2026-05-09 00:48 | -14.65156 | -41.33425 | 37090 ft | 478 kts | 30° |
| 2026-05-09 00:48 | -14.59427 | -41.29916 | 37076 ft | 478 kts | 30° |
| 2026-05-09 00:49 | -14.53730 | -41.26428 | 37070 ft | 478 kts | 30° |
| 2026-05-09 00:49 | -14.48010 | -41.22929 | 37077 ft | 478 kts | 30° |
| 2026-05-09 00:50 | -14.42283 | -41.19425 | 37078 ft | 478 kts | 30° |
| 2026-05-09 00:50 | -14.36559 | -41.15926 | 37075 ft | 478 kts | 30° |
| 2026-05-09 00:51 | -14.30840 | -41.12434 | 37073 ft | 477 kts | 30° |
| 2026-05-09 00:51 | -14.25156 | -41.08967 | 37072 ft | 477 kts | 30° |
| 2026-05-09 00:52 | -14.19451 | -41.05486 | 37076 ft | 476 kts | 30° |
| 2026-05-09 00:52 | -14.13743 | -41.02005 | 37074 ft | 476 kts | 30° |
| 2026-05-09 00:53 | -14.08039 | -40.98531 | 37074 ft | 476 kts | 30° |
| 2026-05-09 00:53 | -14.02340 | -40.95060 | 37069 ft | 475 kts | 30° |
| 2026-05-09 00:54 | -13.96642 | -40.91592 | 37078 ft | 475 kts | 30° |
| 2026-05-09 00:54 | -13.90989 | -40.88153 | 37072 ft | 474 kts | 30° |
| 2026-05-09 00:55 | -13.85309 | -40.84699 | 37073 ft | 474 kts | 30° |
| 2026-05-09 00:55 | -13.79626 | -40.81246 | 37076 ft | 474 kts | 30° |
| 2026-05-09 00:56 | -13.73942 | -40.77796 | 37076 ft | 474 kts | 30° |
| 2026-05-09 00:56 | -13.68260 | -40.74351 | 37071 ft | 475 kts | 30° |
| 2026-05-09 00:57 | -13.62568 | -40.70900 | 37064 ft | 474 kts | 30° |
| 2026-05-09 00:57 | -13.56879 | -40.67455 | 37065 ft | 474 kts | 30° |
| 2026-05-09 00:58 | -13.51183 | -40.64007 | 37063 ft | 474 kts | 30° |
| 2026-05-09 00:58 | -13.45510 | -40.60573 | 37058 ft | 473 kts | 30° |
| 2026-05-09 00:59 | -13.39880 | -40.57167 | 37066 ft | 472 kts | 30° |
| 2026-05-09 00:59 | -13.34198 | -40.53732 | 37065 ft | 473 kts | 30° |
| 2026-05-09 01:00 | -13.28533 | -40.50307 | 37063 ft | 472 kts | 30° |
| 2026-05-09 01:00 | -13.22865 | -40.46885 | 37065 ft | 472 kts | 30° |
| 2026-05-09 01:01 | -13.17224 | -40.43482 | 37054 ft | 473 kts | 29° |
| 2026-05-09 01:01 | -13.11549 | -40.40058 | 37055 ft | 473 kts | 29° |
| 2026-05-09 01:02 | -13.05866 | -40.36630 | 37056 ft | 473 kts | 29° |
| 2026-05-09 01:02 | -13.00187 | -40.33209 | 37055 ft | 473 kts | 29° |
| 2026-05-09 01:03 | -12.94501 | -40.29789 | 37053 ft | 473 kts | 29° |
| 2026-05-09 01:03 | -12.88855 | -40.26393 | 37056 ft | 473 kts | 29° |
| 2026-05-09 01:04 | -12.83170 | -40.22975 | 37042 ft | 473 kts | 29° |
| 2026-05-09 01:04 | -12.77489 | -40.19560 | 37037 ft | 473 kts | 29° |
| 2026-05-09 01:05 | -12.71826 | -40.16158 | 37041 ft | 472 kts | 29° |
| 2026-05-09 01:06 | -12.63336 | -40.11061 | 37039 ft | 471 kts | 28° |
| 2026-05-09 01:06 | -12.57762 | -40.07717 | 37041 ft | 470 kts | 28° |
| 2026-05-09 01:07 | -12.52065 | -40.04300 | 37040 ft | 470 kts | 28° |
| 2026-05-09 01:07 | -12.46420 | -40.00917 | 37032 ft | 470 kts | 28° |
| 2026-05-09 01:08 | -12.40786 | -39.97543 | 37035 ft | 469 kts | 28° |
| 2026-05-09 01:08 | -12.35143 | -39.94165 | 37027 ft | 469 kts | 28° |
| 2026-05-09 01:09 | -12.29512 | -39.90797 | 37026 ft | 468 kts | 28° |
| 2026-05-09 01:09 | -12.23885 | -39.87431 | 37030 ft | 468 kts | 28° |
| 2026-05-09 01:10 | -12.18261 | -39.84067 | 37027 ft | 468 kts | 28° |
| 2026-05-09 01:10 | -12.12667 | -39.80723 | 37029 ft | 469 kts | 28° |
| 2026-05-09 01:11 | -12.07032 | -39.77361 | 37026 ft | 469 kts | 28° |
| 2026-05-09 01:11 | -12.01395 | -39.73993 | 37033 ft | 469 kts | 28° |
| 2026-05-09 01:12 | -11.95748 | -39.70623 | 37030 ft | 470 kts | 28° |
| 2026-05-09 01:12 | -11.90099 | -39.67252 | 37031 ft | 470 kts | 28° |
| 2026-05-09 01:13 | -11.84491 | -39.63894 | 37031 ft | 470 kts | 28° |
| 2026-05-09 01:13 | -11.78850 | -39.60491 | 37030 ft | 470 kts | 28° |
| 2026-05-09 01:14 | -11.73206 | -39.57120 | 37023 ft | 470 kts | 28° |
| 2026-05-09 01:14 | -11.67560 | -39.53762 | 37027 ft | 470 kts | 28° |
| 2026-05-09 01:15 | -11.61911 | -39.50402 | 37024 ft | 470 kts | 28° |
| 2026-05-09 01:15 | -11.56353 | -39.47091 | 37029 ft | 470 kts | 28° |
| 2026-05-09 01:16 | -11.50650 | -39.43695 | 37024 ft | 470 kts | 28° |
| 2026-05-09 01:16 | -11.45002 | -39.40333 | 37034 ft | 469 kts | 28° |
| 2026-05-09 01:17 | -11.36544 | -39.35305 | 37035 ft | 468 kts | 28° |
| 2026-05-09 01:17 | -11.30911 | -39.31956 | 37038 ft | 468 kts | 28° |
| 2026-05-09 01:18 | -11.25310 | -39.28632 | 37040 ft | 468 kts | 28° |
| 2026-05-09 01:18 | -11.19685 | -39.25291 | 37033 ft | 468 kts | 28° |
| 2026-05-09 01:19 | -11.14062 | -39.21951 | 37036 ft | 468 kts | 28° |
| 2026-05-09 01:19 | -11.08441 | -39.18616 | 37033 ft | 467 kts | 28° |
| 2026-05-09 01:20 | -11.02826 | -39.15287 | 37048 ft | 467 kts | 28° |
| 2026-05-09 01:20 | -10.98150 | -39.12517 | 37048 ft | 466 kts | 28° |
| 2026-05-09 01:21 | -10.92531 | -39.09188 | 37049 ft | 466 kts | 28° |
| 2026-05-09 01:21 | -10.86928 | -39.05869 | 37047 ft | 466 kts | 28° |
| 2026-05-09 01:22 | -10.81362 | -39.02576 | 37046 ft | 466 kts | 28° |
| 2026-05-09 01:22 | -10.75739 | -38.99246 | 37050 ft | 466 kts | 28° |
| 2026-05-09 01:23 | -10.70131 | -38.95927 | 37048 ft | 466 kts | 28° |
| 2026-05-09 01:23 | -10.64523 | -38.92612 | 37045 ft | 466 kts | 28° |
| 2026-05-09 01:24 | -10.58912 | -38.89296 | 37048 ft | 466 kts | 28° |
| 2026-05-09 01:24 | -10.53298 | -38.85980 | 37046 ft | 466 kts | 28° |
| 2026-05-09 01:25 | -10.47682 | -38.82664 | 37043 ft | 466 kts | 28° |
| 2026-05-09 01:25 | -10.42099 | -38.79370 | 37047 ft | 466 kts | 28° |
| 2026-05-09 01:26 | -10.36495 | -38.76062 | 37040 ft | 465 kts | 28° |
| 2026-05-09 01:26 | -10.30891 | -38.72757 | 37044 ft | 465 kts | 28° |
| 2026-05-09 01:27 | -10.25295 | -38.69458 | 37045 ft | 464 kts | 27° |
| 2026-05-09 01:27 | -10.19711 | -38.66167 | 37046 ft | 464 kts | 27° |
| 2026-05-09 01:28 | -10.14162 | -38.62899 | 37043 ft | 464 kts | 27° |
| 2026-05-09 01:28 | -10.08580 | -38.59613 | 37050 ft | 463 kts | 27° |
| 2026-05-09 01:29 | -10.03003 | -38.56330 | 37049 ft | 463 kts | 27° |
| 2026-05-09 01:29 | -9.97421 | -38.53044 | 37042 ft | 463 kts | 27° |
| 2026-05-09 01:30 | -9.91839 | -38.49762 | 37043 ft | 463 kts | 27° |
| 2026-05-09 01:30 | -9.86269 | -38.46489 | 37038 ft | 463 kts | 27° |
| 2026-05-09 01:31 | -9.80741 | -38.43239 | 37047 ft | 462 kts | 27° |
| 2026-05-09 01:31 | -9.75171 | -38.39968 | 37052 ft | 462 kts | 27° |
| 2026-05-09 01:32 | -9.69596 | -38.36714 | 37046 ft | 462 kts | 27° |
| 2026-05-09 01:32 | -9.64013 | -38.33468 | 37045 ft | 462 kts | 27° |
| 2026-05-09 01:33 | -9.58437 | -38.30221 | 37044 ft | 462 kts | 27° |
| 2026-05-09 01:33 | -9.52868 | -38.26980 | 37041 ft | 462 kts | 27° |
| 2026-05-09 01:34 | -9.47282 | -38.23731 | 37050 ft | 462 kts | 27° |
| 2026-05-09 01:34 | -9.41741 | -38.20507 | 37045 ft | 462 kts | 27° |
| 2026-05-09 01:35 | -9.36171 | -38.17268 | 37042 ft | 462 kts | 27° |
| 2026-05-09 01:35 | -9.30595 | -38.14027 | 37048 ft | 462 kts | 27° |
| 2026-05-09 01:36 | -9.25011 | -38.10782 | 37050 ft | 463 kts | 27° |
| 2026-05-09 01:36 | -9.19415 | -38.07531 | 37045 ft | 463 kts | 27° |
| 2026-05-09 01:37 | -9.13824 | -38.04284 | 37046 ft | 463 kts | 27° |
| 2026-05-09 01:37 | -9.08269 | -38.01045 | 37044 ft | 464 kts | 27° |
| 2026-05-09 01:38 | -9.02675 | -37.97775 | 37053 ft | 463 kts | 27° |
| 2026-05-09 01:38 | -8.97094 | -37.94515 | 37050 ft | 463 kts | 27° |
| 2026-05-09 01:39 | -8.91530 | -37.91267 | 37042 ft | 462 kts | 27° |
| 2026-05-09 01:39 | -8.85974 | -37.88025 | 37044 ft | 461 kts | 27° |
| 2026-05-09 01:40 | -8.80409 | -37.84779 | 37048 ft | 460 kts | 27° |
| 2026-05-09 01:40 | -8.74862 | -37.81546 | 37046 ft | 460 kts | 27° |
| 2026-05-09 01:41 | -8.69319 | -37.78315 | 37041 ft | 460 kts | 27° |
| 2026-05-09 01:41 | -8.63802 | -37.75100 | 37048 ft | 460 kts | 27° |
| 2026-05-09 01:42 | -8.58253 | -37.71870 | 37043 ft | 460 kts | 27° |
| 2026-05-09 01:42 | -8.52702 | -37.68637 | 37049 ft | 460 kts | 27° |
| 2026-05-09 01:43 | -8.47149 | -37.65405 | 37049 ft | 461 kts | 27° |
| 2026-05-09 01:43 | -8.41583 | -37.62165 | 37047 ft | 462 kts | 27° |
| 2026-05-09 01:44 | -8.36014 | -37.58927 | 37047 ft | 462 kts | 27° |
| 2026-05-09 01:44 | -8.30439 | -37.55685 | 37042 ft | 463 kts | 27° |
| 2026-05-09 01:45 | -8.24885 | -37.52457 | 37044 ft | 463 kts | 27° |
| 2026-05-09 01:45 | -8.19336 | -37.49232 | 37052 ft | 462 kts | 27° |
| 2026-05-09 01:46 | -8.13728 | -37.45973 | 37046 ft | 463 kts | 27° |
| 2026-05-09 01:46 | -8.08149 | -37.42735 | 37056 ft | 462 kts | 27° |
| 2026-05-09 01:47 | -8.02577 | -37.39504 | 37057 ft | 462 kts | 27° |
| 2026-05-09 01:47 | -7.96991 | -37.36267 | 37056 ft | 462 kts | 27° |
| 2026-05-09 01:48 | -7.91412 | -37.33033 | 37054 ft | 462 kts | 27° |
| 2026-05-09 01:48 | -7.85848 | -37.29807 | 37055 ft | 461 kts | 27° |
| 2026-05-09 01:49 | -7.80281 | -37.26580 | 37050 ft | 461 kts | 27° |
| 2026-05-09 01:49 | -7.74760 | -37.23384 | 37057 ft | 460 kts | 27° |
| 2026-05-09 01:50 | -7.69176 | -37.20151 | 37058 ft | 459 kts | 27° |
| 2026-05-09 01:50 | -7.63669 | -37.16962 | 37054 ft | 459 kts | 27° |
| 2026-05-09 01:51 | -7.58136 | -37.13761 | 37057 ft | 458 kts | 27° |
| 2026-05-09 01:51 | -7.52600 | -37.10559 | 37055 ft | 458 kts | 27° |
| 2026-05-09 01:52 | -7.47105 | -37.07381 | 37057 ft | 458 kts | 27° |
| 2026-05-09 01:52 | -7.41559 | -37.04173 | 37056 ft | 457 kts | 27° |
| 2026-05-09 01:53 | -7.36039 | -37.00982 | 37055 ft | 457 kts | 27° |
| 2026-05-09 01:53 | -7.30518 | -36.97792 | 37058 ft | 457 kts | 27° |
| 2026-05-09 01:54 | -7.25016 | -36.94591 | 37055 ft | 456 kts | 27° |
| 2026-05-09 01:54 | -7.19555 | -36.91408 | 37058 ft | 456 kts | 27° |
| 2026-05-09 01:55 | -7.16793 | -36.89799 | 36697 ft | 462 kts | 27° |
| 2026-05-09 01:55 | -7.14007 | -36.88177 | 36149 ft | 461 kts | 27° |
| 2026-05-09 01:55 | -7.11223 | -36.86556 | 35498 ft | 461 kts | 27° |
| 2026-05-09 01:55 | -7.08452 | -36.84952 | 34928 ft | 460 kts | 27° |
| 2026-05-09 01:56 | -7.05676 | -36.83353 | 34244 ft | 460 kts | 27° |
| 2026-05-09 01:56 | -7.02891 | -36.81753 | 33551 ft | 460 kts | 27° |
| 2026-05-09 01:56 | -7.00105 | -36.80152 | 32832 ft | 462 kts | 27° |
| 2026-05-09 01:56 | -6.97309 | -36.78544 | 32086 ft | 463 kts | 27° |
| 2026-05-09 01:57 | -6.94514 | -36.76935 | 31354 ft | 464 kts | 27° |
| 2026-05-09 01:57 | -6.91725 | -36.75329 | 30834 ft | 459 kts | 27° |
| 2026-05-09 01:57 | -6.88965 | -36.73740 | 30290 ft | 456 kts | 27° |
| 2026-05-09 01:57 | -6.86219 | -36.72157 | 29758 ft | 452 kts | 28° |
| 2026-05-09 01:58 | -6.83498 | -36.70590 | 29208 ft | 449 kts | 28° |
| 2026-05-09 01:58 | -6.80799 | -36.69037 | 28663 ft | 445 kts | 28° |
| 2026-05-09 01:58 | -6.78118 | -36.67495 | 28119 ft | 442 kts | 28° |
| 2026-05-09 01:58 | -6.75498 | -36.65987 | 27583 ft | 438 kts | 28° |
| 2026-05-09 01:59 | -6.72863 | -36.64471 | 27047 ft | 434 kts | 28° |
| 2026-05-09 01:59 | -6.70252 | -36.62969 | 26510 ft | 430 kts | 28° |
| 2026-05-09 01:59 | -6.67663 | -36.61480 | 25980 ft | 426 kts | 28° |
| 2026-05-09 01:59 | -6.65113 | -36.60030 | 25677 ft | 416 kts | 28° |
| 2026-05-09 02:00 | -6.62605 | -36.58591 | 25180 ft | 413 kts | 32° |
| 2026-05-09 02:00 | -6.60462 | -36.56685 | 24715 ft | 411 kts | 50° |
| 2026-05-09 02:00 | -6.58779 | -36.54453 | 24263 ft | 406 kts | 52° |
| 2026-05-09 02:00 | -6.57069 | -36.52135 | 23740 ft | 403 kts | 52° |
| 2026-05-09 02:01 | -6.55405 | -36.49877 | 23234 ft | 401 kts | 52° |
| 2026-05-09 02:01 | -6.53746 | -36.47636 | 22716 ft | 398 kts | 52° |
| 2026-05-09 02:01 | -6.52096 | -36.45420 | 22216 ft | 395 kts | 52° |
| 2026-05-09 02:01 | -6.50451 | -36.43219 | 21714 ft | 392 kts | 52° |
| 2026-05-09 02:02 | -6.48813 | -36.41037 | 21214 ft | 390 kts | 52° |
| 2026-05-09 02:02 | -6.47185 | -36.38872 | 20715 ft | 387 kts | 52° |
| 2026-05-09 02:02 | -6.45565 | -36.36717 | 20219 ft | 384 kts | 52° |
| 2026-05-09 02:02 | -6.43980 | -36.34611 | 19729 ft | 382 kts | 52° |
| 2026-05-09 02:03 | -6.42375 | -36.32480 | 19234 ft | 379 kts | 52° |
| 2026-05-09 02:03 | -6.40788 | -36.30373 | 18747 ft | 377 kts | 53° |
| 2026-05-09 02:03 | -6.39209 | -36.28276 | 18257 ft | 375 kts | 53° |
| 2026-05-09 02:03 | -6.37660 | -36.26220 | 17789 ft | 373 kts | 53° |
| 2026-05-09 02:04 | -6.36084 | -36.24126 | 17288 ft | 371 kts | 53° |
| 2026-05-09 02:04 | -6.34528 | -36.22063 | 16812 ft | 369 kts | 53° |
| 2026-05-09 02:04 | -6.32983 | -36.20012 | 16333 ft | 367 kts | 53° |
| 2026-05-09 02:04 | -6.31451 | -36.17978 | 15863 ft | 364 kts | 53° |
| 2026-05-09 02:05 | -6.29926 | -36.15954 | 15391 ft | 361 kts | 53° |
| 2026-05-09 02:05 | -6.28411 | -36.13943 | 14914 ft | 359 kts | 53° |
| 2026-05-09 02:05 | -6.26909 | -36.11951 | 14455 ft | 356 kts | 53° |
| 2026-05-09 02:05 | -6.25437 | -36.09998 | 13991 ft | 353 kts | 53° |
| 2026-05-09 02:06 | -6.24438 | -36.08674 | 13679 ft | 351 kts | 53° |
| 2026-05-09 02:06 | -6.22492 | -36.06092 | 13070 ft | 347 kts | 53° |
| 2026-05-09 02:06 | -6.21041 | -36.04166 | 12615 ft | 345 kts | 53° |
| 2026-05-09 02:07 | -6.18171 | -36.00359 | 11712 ft | 339 kts | 54° |
| 2026-05-09 02:07 | -6.16754 | -35.98481 | 11277 ft | 336 kts | 54° |
| 2026-05-09 02:07 | -6.15804 | -35.97221 | 10974 ft | 334 kts | 54° |
| 2026-05-09 02:07 | -6.14413 | -35.95378 | 10758 ft | 325 kts | 54° |
| 2026-05-09 02:08 | -6.13066 | -35.93593 | 10601 ft | 315 kts | 54° |
| 2026-05-09 02:08 | -6.11764 | -35.91869 | 10466 ft | 305 kts | 54° |
| 2026-05-09 02:08 | -6.10504 | -35.90200 | 10337 ft | 295 kts | 54° |
| 2026-05-09 02:08 | -6.09299 | -35.88603 | 10213 ft | 286 kts | 54° |
| 2026-05-09 02:09 | -6.08114 | -35.87034 | 10090 ft | 277 kts | 55° |
| 2026-05-09 02:09 | -6.06966 | -35.85513 | 9938 ft | 270 kts | 55° |
| 2026-05-09 02:09 | -6.05833 | -35.84010 | 9656 ft | 269 kts | 55° |
| 2026-05-09 02:09 | -6.04709 | -35.82519 | 9388 ft | 267 kts | 55° |
| 2026-05-09 02:10 | -6.03591 | -35.81038 | 9114 ft | 265 kts | 55° |
| 2026-05-09 02:10 | -6.02480 | -35.79565 | 8823 ft | 264 kts | 55° |
| 2026-05-09 02:10 | -6.01370 | -35.78094 | 8548 ft | 262 kts | 55° |
| 2026-05-09 02:10 | -6.00271 | -35.76638 | 8274 ft | 261 kts | 55° |
| 2026-05-09 02:11 | -5.99176 | -35.75188 | 7989 ft | 260 kts | 55° |
| 2026-05-09 02:11 | -5.98082 | -35.73740 | 7708 ft | 259 kts | 55° |
| 2026-05-09 02:11 | -5.96993 | -35.72298 | 7419 ft | 258 kts | 55° |
| 2026-05-09 02:11 | -5.95909 | -35.70863 | 7152 ft | 257 kts | 55° |
| 2026-05-09 02:12 | -5.94820 | -35.69440 | 6878 ft | 257 kts | 54° |
| 2026-05-09 02:12 | -5.93683 | -35.68030 | 6629 ft | 263 kts | 53° |
| 2026-05-09 02:12 | -5.92532 | -35.66618 | 6366 ft | 267 kts | 53° |
| 2026-05-09 02:12 | -5.91374 | -35.65199 | 6097 ft | 267 kts | 53° |
| 2026-05-09 02:13 | -5.90224 | -35.63788 | 5830 ft | 265 kts | 53° |
| 2026-05-09 02:13 | -5.89062 | -35.62359 | 5559 ft | 263 kts | 53° |
| 2026-05-09 02:13 | -5.87910 | -35.60941 | 5296 ft | 261 kts | 53° |
| 2026-05-09 02:13 | -5.86766 | -35.59531 | 5033 ft | 259 kts | 53° |
| 2026-05-09 02:14 | -5.85633 | -35.58139 | 4773 ft | 254 kts | 53° |
| 2026-05-09 02:14 | -5.84560 | -35.56846 | 4580 ft | 242 kts | 48° |
| 2026-05-09 02:14 | -5.83122 | -35.55990 | 4455 ft | 228 kts | 20° |
| 2026-05-09 02:14 | -5.81608 | -35.55665 | 4143 ft | 221 kts | 12° |
| 2026-05-09 02:15 | -5.80132 | -35.55443 | 3881 ft | 209 kts | 12° |
| 2026-05-09 02:15 | -5.78723 | -35.55231 | 3654 ft | 201 kts | 12° |
| 2026-05-09 02:15 | -5.77367 | -35.55019 | 3441 ft | 193 kts | 13° |
| 2026-05-09 02:15 | -5.76071 | -35.54809 | 3216 ft | 185 kts | 17° |
| 2026-05-09 02:16 | -5.75031 | -35.54203 | 3045 ft | 171 kts | 62° |
| 2026-05-09 02:16 | -5.74802 | -35.53116 | 2930 ft | 158 kts | 93° |
| 2026-05-09 02:16 | -5.74786 | -35.52039 | 2775 ft | 152 kts | 94° |
| 2026-05-09 02:16 | -5.74818 | -35.50999 | 2748 ft | 147 kts | 95° |
| 2026-05-09 02:17 | -5.74881 | -35.49953 | 2625 ft | 151 kts | 98° |
| 2026-05-09 02:17 | -5.75012 | -35.48906 | 2430 ft | 151 kts | 101° |
| 2026-05-09 02:17 | -5.75171 | -35.47865 | 2234 ft | 149 kts | 101° |
| 2026-05-09 02:17 | -5.75333 | -35.46843 | 2042 ft | 149 kts | 101° |
| 2026-05-09 02:18 | -5.75501 | -35.45805 | 1844 ft | 151 kts | 101° |
| 2026-05-09 02:18 | -5.75671 | -35.44761 | 1643 ft | 152 kts | 102° |
| 2026-05-09 02:18 | -5.75830 | -35.43771 | 1459 ft | 157 kts | 100° |
| 2026-05-09 02:18 | -5.76005 | -35.42686 | 1250 ft | 159 kts | 101° |
| 2026-05-09 02:19 | -5.76181 | -35.41588 | 1031 ft | 159 kts | 100° |
| 2026-05-09 02:19 | -5.76360 | -35.40498 | 821 ft | 159 kts | 100° |
| 2026-05-09 02:19 | -5.76530 | -35.39397 | 577 ft | 160 kts | 100° |
| 2026-05-09 02:19 | -5.76711 | -35.38298 | 381 ft | 159 kts | 100° |
| 2026-05-09 02:20 | -5.76892 | -35.37226 | 288 ft | 146 kts | 101° |
| 2026-05-09 02:20 | -5.77034 | -35.36321 | 275 ft | 108 kts | 100° |
| 2026-05-09 02:20 | -5.77122 | -35.35791 | 274 ft | 46 kts | 99° |
| 2026-05-09 02:20 | -5.77162 | -35.35539 | 274 ft | 35 kts | 99° |
| 2026-05-09 02:21 | -5.77182 | -35.35378 | 273 ft | 11 kts | 81° |
| 2026-05-09 02:21 | -5.77128 | -35.35325 | 277 ft | 12 kts | 17° |
| 2026-05-09 02:21 | -5.77035 | -35.35334 | 273 ft | 16 kts | 317° |
| 2026-05-09 02:21 | -5.77002 | -35.35441 | 273 ft | 16 kts | 278° |
| 2026-05-09 02:22 | -5.76985 | -35.35550 | 273 ft | 15 kts | 279° |
| 2026-05-09 02:22 | -5.76969 | -35.35655 | 273 ft | 15 kts | 279° |
| 2026-05-09 02:22 | -5.76953 | -35.35755 | 273 ft | 14 kts | 279° |
| 2026-05-09 02:22 | -5.76938 | -35.35851 | 273 ft | 14 kts | 278° |
| 2026-05-09 02:23 | -5.76924 | -35.35943 | 273 ft | 13 kts | 278° |
| 2026-05-09 02:23 | -5.76911 | -35.36032 | 273 ft | 13 kts | 278° |
| 2026-05-09 02:23 | -5.76895 | -35.36118 | 275 ft | 13 kts | 282° |
| 2026-05-09 02:23 | -5.76876 | -35.36214 | 273 ft | 15 kts | 280° |
| 2026-05-09 02:24 | -5.76856 | -35.36330 | 276 ft | 18 kts | 279° |
| 2026-05-09 02:24 | -5.76833 | -35.36464 | 273 ft | 21 kts | 279° |
| 2026-05-09 02:24 | -5.76808 | -35.36615 | 276 ft | 23 kts | 279° |
| 2026-05-09 02:24 | -5.76782 | -35.36780 | 273 ft | 25 kts | 279° |
| 2026-05-09 02:25 | -5.76696 | -35.36842 | 273 ft | 18 kts | 6° |
| 2026-05-09 02:25 | -5.76585 | -35.36881 | 273 ft | 20 kts | 294° |
| 2026-05-09 02:25 | -5.76560 | -35.37019 | 273 ft | 22 kts | 279° |
| 2026-05-09 02:25 | -5.76537 | -35.37107 | 273 ft | 6 kts | 312° |
| 2026-05-09 02:26 | -5.76493 | -35.37113 | 273 ft | 8 kts | 8° |
| 2026-05-09 02:26 | -5.76453 | -35.37107 | 273 ft | 0 kts | 9° |